createdAt,value
2016-05-30T00:01:36.563Z,0
2016-05-30T00:02:37.065Z,0
2016-05-30T00:03:36.802Z,0
2016-05-30T00:04:35.586Z,0
2016-05-30T00:06:35.607Z,0
2016-05-30T00:07:50.174Z,0
2016-05-30T00:08:49.427Z,0
2016-05-30T00:10:38.727Z,0
2016-05-30T00:12:03.045Z,0
2016-05-30T00:13:03.095Z,0
2016-05-30T00:13:49.269Z,0
2016-05-30T00:16:03.665Z,0
2016-05-30T00:16:36.743Z,0
2016-05-30T00:18:02.842Z,0
2016-05-30T00:18:49.236Z,0
2016-05-30T00:19:38.517Z,0
2016-05-30T00:20:41.787Z,0
2016-05-30T00:22:35.384Z,0
2016-05-30T00:26:49.022Z,0
2016-05-30T00:27:49.120Z,0
2016-05-30T00:28:35.323Z,0
2016-05-30T00:29:48.984Z,0
2016-05-30T00:31:44.724Z,0
2016-05-30T00:32:58.773Z,0
2016-05-30T00:33:45.307Z,0
2016-05-30T00:34:45.529Z,0
2016-05-30T00:36:46.160Z,0
2016-05-30T00:37:58.443Z,0
2016-05-30T00:38:47.617Z,0
2016-05-30T00:39:45.511Z,0
2016-05-30T00:40:47.577Z,0
2016-05-30T00:41:44.501Z,0
2016-05-30T00:44:44.462Z,0
2016-05-30T00:45:45.293Z,0
2016-05-30T00:46:45.265Z,0
2016-05-30T00:49:12.082Z,0
2016-05-30T00:50:58.103Z,0
2016-05-30T00:53:11.764Z,0
2016-05-30T00:53:44.064Z,0
2016-05-30T00:54:44.708Z,0
2016-05-30T00:55:58.820Z,0
2016-05-30T00:56:44.416Z,0
2016-05-30T00:57:45.044Z,0
2016-05-30T00:58:44.797Z,0
2016-05-30T00:59:44.830Z,0
2016-05-30T01:01:11.786Z,0
2016-05-30T01:01:58.710Z,0
2016-05-30T01:03:11.666Z,0
2016-05-30T01:03:46.263Z,0
2016-05-30T01:04:45.563Z,0
2016-05-30T01:05:45.518Z,0
2016-05-30T01:06:58.646Z,0
2016-05-30T01:09:24.104Z,0
2016-05-30T01:10:23.873Z,0
2016-05-30T01:11:59.424Z,0
2016-05-30T01:13:03.146Z,0
2016-05-30T01:13:56.352Z,0
2016-05-30T01:15:10.948Z,0
2016-05-30T01:16:23.749Z,0
2016-05-30T01:17:10.501Z,0
2016-05-30T01:18:09.957Z,0
2016-05-30T01:18:56.365Z,0
2016-05-30T01:21:10.153Z,0
2016-05-30T01:22:23.921Z,0
2016-05-30T01:23:11.267Z,0
2016-05-30T01:23:56.426Z,0
2016-05-30T01:25:10.351Z,0
2016-05-30T01:25:57.213Z,0
2016-05-30T01:30:09.770Z,0
2016-05-30T01:30:57.336Z,0
2016-05-30T01:32:37.150Z,0
2016-05-30T01:33:32.325Z,0
2016-05-30T01:34:32.374Z,0
2016-05-30T01:35:25.816Z,0
2016-05-30T01:36:05.755Z,0
2016-05-30T01:37:06.524Z,0
2016-05-30T01:38:06.791Z,0
2016-05-30T01:41:18.957Z,0
2016-05-30T01:42:18.552Z,0
2016-05-30T01:43:18.508Z,0
2016-05-30T01:44:18.355Z,0
2016-05-30T01:45:19.576Z,0
2016-05-30T01:47:05.284Z,0
2016-05-30T01:48:18.615Z,0
2016-05-30T01:49:32.087Z,0
2016-05-30T01:51:32.811Z,0
2016-05-30T01:52:18.423Z,0
2016-05-30T01:53:18.098Z,0
2016-05-30T01:54:18.319Z,0
2016-05-30T01:55:18.212Z,0
2016-05-30T01:56:18.152Z,0
2016-05-30T01:57:05.905Z,0
2016-05-30T01:59:31.817Z,0
2016-05-30T02:00:19.225Z,0
2016-05-30T02:01:04.651Z,0
2016-05-30T02:02:18.091Z,0
2016-05-30T02:04:31.799Z,0
2016-05-30T02:05:31.771Z,0
2016-05-30T02:06:05.477Z,0
2016-05-30T02:07:32.542Z,0
2016-05-30T02:08:31.983Z,0
2016-05-30T02:09:18.015Z,0
2016-05-30T02:10:17.863Z,0
2016-05-30T02:11:04.365Z,0
2016-05-30T02:12:18.399Z,0
2016-05-30T02:13:18.636Z,0
2016-05-30T02:15:18.094Z,0
2016-05-30T02:17:18.772Z,0
2016-05-30T02:19:05.402Z,0
2016-05-30T02:20:05.437Z,0
2016-05-30T02:21:04.095Z,0
2016-05-30T02:24:04.525Z,0
2016-05-30T02:26:17.562Z,0
2016-05-30T02:27:17.658Z,0
2016-05-30T02:29:04.039Z,0
2016-05-30T02:30:04.166Z,0
2016-05-30T02:31:05.559Z,0
2016-05-30T02:32:16.468Z,0
2016-05-30T02:33:03.768Z,0
2016-05-30T02:35:31.414Z,0
2016-05-30T02:36:17.463Z,0
2016-05-30T02:37:17.247Z,0
2016-05-30T02:39:31.703Z,0
2016-05-30T02:40:31.076Z,0
2016-05-30T02:41:31.418Z,0
2016-05-30T02:43:06.884Z,0
2016-05-30T02:45:17.559Z,0
2016-05-30T02:47:04.614Z,0
2016-05-30T02:48:04.142Z,0
2016-05-30T02:49:05.964Z,0
2016-05-30T02:50:04.594Z,0
2016-05-30T02:51:17.945Z,0
2016-05-30T02:53:18.223Z,0
2016-05-30T02:54:09.915Z,0
2016-05-30T02:55:17.325Z,0
2016-05-30T02:56:17.220Z,0
2016-05-30T02:57:17.208Z,0
2016-05-30T02:58:03.244Z,0
2016-05-30T03:06:04.426Z,0
2016-05-30T03:06:38.707Z,0
2016-05-30T03:07:36.803Z,0
2016-05-30T03:08:50.981Z,0
2016-05-30T03:09:36.403Z,0
2016-05-30T03:10:37.296Z,0
2016-05-30T03:11:50.629Z,0
2016-05-30T03:12:50.069Z,0
2016-05-30T03:13:50.119Z,0
2016-05-30T03:14:50.012Z,0
2016-05-30T03:15:50.140Z,0
2016-05-30T03:16:36.172Z,0
2016-05-30T03:17:42.642Z,0
2016-05-30T03:18:36.223Z,0
2016-05-30T03:19:52.182Z,0
2016-05-30T03:20:49.888Z,0
2016-05-30T03:21:36.685Z,0
2016-05-30T03:22:37.077Z,0
2016-05-30T03:23:50.114Z,0
2016-05-30T03:27:45.500Z,0
2016-05-30T03:28:46.846Z,0
2016-05-30T03:29:47.287Z,0
2016-05-30T03:30:59.007Z,0
2016-05-30T03:32:12.917Z,4
2016-05-30T03:34:12.906Z,0
2016-05-30T03:35:47.115Z,0
2016-05-30T03:37:59.715Z,4
2016-05-30T03:39:59.875Z,4
2016-05-30T03:40:45.504Z,4
2016-05-30T03:41:46.163Z,4
2016-05-30T03:42:59.462Z,8
2016-05-30T03:43:58.887Z,8
2016-05-30T03:44:58.921Z,12
2016-05-30T03:45:45.798Z,12
2016-05-30T03:46:46.536Z,16
2016-05-30T03:47:45.866Z,16
2016-05-30T03:48:45.225Z,20
2016-05-30T03:50:13.106Z,20
2016-05-30T03:50:45.278Z,20
2016-05-30T03:51:59.174Z,24
2016-05-30T03:53:45.427Z,32
2016-05-30T03:56:12.357Z,36
2016-05-30T03:57:47.799Z,40
2016-05-30T03:58:45.487Z,48
2016-05-30T03:59:45.646Z,52
2016-05-30T04:00:45.727Z,56
2016-05-30T04:02:12.295Z,60
2016-05-30T04:02:45.685Z,56
2016-05-30T04:03:45.047Z,52
2016-05-30T04:04:58.553Z,60
2016-05-30T04:07:12.323Z,80
2016-05-30T04:07:58.482Z,84
2016-05-30T04:09:46.314Z,88
2016-05-30T04:10:45.473Z,84
2016-05-30T04:11:44.648Z,72
2016-05-30T04:12:44.556Z,96
2016-05-30T04:13:45.245Z,116
2016-05-30T04:14:59.189Z,136
2016-05-30T04:15:45.923Z,140
2016-05-30T04:17:58.228Z,104
2016-05-30T04:18:47.372Z,112
2016-05-30T04:19:47.437Z,124
2016-05-30T04:20:58.111Z,132
2016-05-30T04:21:45.064Z,164
2016-05-30T04:22:44.849Z,192
2016-05-30T04:23:44.398Z,248
2016-05-30T04:24:45.244Z,276
2016-05-30T04:25:44.419Z,284
2016-05-30T04:26:44.984Z,276
2016-05-30T04:27:58.005Z,280
2016-05-30T04:28:58.632Z,276
2016-05-30T04:29:44.226Z,280
2016-05-30T04:30:44.276Z,280
2016-05-30T04:31:44.435Z,276
2016-05-30T04:32:44.876Z,264
2016-05-30T04:33:44.112Z,244
2016-05-30T04:34:44.724Z,224
2016-05-30T04:35:44.773Z,200
2016-05-30T04:37:11.624Z,164
2016-05-30T04:37:44.780Z,148
2016-05-30T04:39:44.300Z,120
2016-05-30T04:41:12.009Z,100
2016-05-30T04:42:46.198Z,84
2016-05-30T04:44:00.658Z,92
2016-05-30T04:44:47.267Z,104
2016-05-30T04:45:44.269Z,88
2016-05-30T04:46:45.507Z,72
2016-05-30T04:47:44.322Z,68
2016-05-30T04:48:44.465Z,64
2016-05-30T04:49:44.359Z,56
2016-05-30T04:50:44.002Z,44
2016-05-30T04:51:58.226Z,36
2016-05-30T04:53:11.244Z,28
2016-05-30T04:53:44.978Z,32
2016-05-30T04:54:57.438Z,32
2016-05-30T04:55:57.502Z,36
2016-05-30T04:56:57.286Z,36
2016-05-30T04:57:44.302Z,40
2016-05-30T04:58:57.401Z,32
2016-05-30T05:00:57.391Z,24
2016-05-30T05:01:58.237Z,24
2016-05-30T05:03:57.149Z,24
2016-05-30T05:05:44.885Z,28
2016-05-30T05:06:57.516Z,28
2016-05-30T05:07:44.157Z,28
2016-05-30T05:08:44.331Z,32
2016-05-30T05:11:57.123Z,32
2016-05-30T05:12:43.483Z,36
2016-05-30T05:13:44.236Z,32
2016-05-30T05:15:10.772Z,32
2016-05-30T05:15:57.056Z,28
2016-05-30T05:16:57.731Z,36
2016-05-30T05:17:44.715Z,32
2016-05-30T05:18:57.017Z,32
2016-05-30T05:20:57.726Z,20
2016-05-30T05:22:57.247Z,32
2016-05-30T05:23:56.703Z,32
2016-05-30T05:24:56.908Z,20
2016-05-30T05:25:47.361Z,16
2016-05-30T05:26:56.914Z,12
2016-05-30T05:27:57.120Z,12
2016-05-30T05:28:43.902Z,8
2016-05-30T05:29:43.482Z,8
2016-05-30T05:30:43.359Z,8
2016-05-30T05:31:43.222Z,8
2016-05-30T05:32:43.818Z,12
2016-05-30T05:33:43.540Z,12
2016-05-30T05:34:43.292Z,8
2016-05-30T05:35:43.123Z,12
2016-05-30T05:36:43.548Z,16
2016-05-30T05:37:56.646Z,20
2016-05-30T05:38:46.787Z,24
2016-05-30T05:39:57.104Z,32
2016-05-30T05:40:56.796Z,36
2016-05-30T05:41:57.485Z,32
2016-05-30T05:43:44.395Z,52
2016-05-30T05:44:43.022Z,52
2016-05-30T05:45:58.105Z,52
2016-05-30T05:46:44.027Z,56
2016-05-30T05:47:42.937Z,52
2016-05-30T05:48:56.504Z,56
2016-05-30T05:49:43.239Z,60
2016-05-30T05:51:43.916Z,64
2016-05-30T05:52:44.152Z,64
2016-05-30T05:54:43.003Z,68
2016-05-30T05:55:43.239Z,56
2016-05-30T05:56:44.102Z,48
2016-05-30T05:57:44.400Z,44
2016-05-30T05:58:43.982Z,44
2016-05-30T05:59:56.472Z,44
2016-05-30T06:00:43.097Z,52
2016-05-30T06:01:56.430Z,60
2016-05-30T06:02:56.589Z,56
2016-05-30T06:03:57.123Z,64
2016-05-30T06:04:42.966Z,52
2016-05-30T06:05:42.907Z,52
2016-05-30T06:06:43.332Z,56
2016-05-30T06:07:42.365Z,64
2016-05-30T06:08:43.055Z,64
2016-05-30T06:09:43.387Z,64
2016-05-30T06:10:43.201Z,68
2016-05-30T06:11:57.223Z,72
2016-05-30T06:13:42.959Z,68
2016-05-30T06:14:42.962Z,80
2016-05-30T06:15:42.699Z,84
2016-05-30T06:16:43.045Z,88
2016-05-30T06:17:42.329Z,84
2016-05-30T06:18:42.364Z,80
2016-05-30T06:19:43.288Z,84
2016-05-30T06:20:56.075Z,84
2016-05-30T06:21:43.294Z,88
2016-05-30T06:22:43.983Z,96
2016-05-30T06:23:49.142Z,84
2016-05-30T06:24:43.317Z,96
2016-05-30T06:25:43.225Z,104
2016-05-30T06:26:56.638Z,108
2016-05-30T06:28:41.968Z,104
2016-05-30T06:29:42.346Z,96
2016-05-30T06:30:44.271Z,96
2016-05-30T06:31:42.163Z,108
2016-05-30T06:32:42.776Z,112
2016-05-30T06:33:55.688Z,120
2016-05-30T06:34:41.891Z,124
2016-05-30T06:35:46.300Z,116
2016-05-30T06:36:56.805Z,128
2016-05-30T06:37:43.040Z,132
2016-05-30T06:38:42.776Z,128
2016-05-30T06:39:42.342Z,132
2016-05-30T06:40:55.581Z,148
2016-05-30T06:42:55.368Z,160
2016-05-30T06:43:55.715Z,160
2016-05-30T06:44:41.949Z,184
2016-05-30T06:45:45.967Z,200
2016-05-30T06:46:41.970Z,196
2016-05-30T06:47:41.723Z,232
2016-05-30T06:48:41.584Z,236
2016-05-30T06:49:41.963Z,208
2016-05-30T06:50:56.530Z,212
2016-05-30T06:51:41.592Z,204
2016-05-30T06:53:41.333Z,256
2016-05-30T06:54:55.276Z,256
2016-05-30T06:55:55.138Z,268
2016-05-30T06:56:55.234Z,292
2016-05-30T06:57:41.547Z,372
2016-05-30T06:59:42.286Z,312
2016-05-30T07:00:57.744Z,300
2016-05-30T07:02:42.888Z,288
2016-05-30T07:04:41.456Z,248
2016-05-30T07:05:42.506Z,228
2016-05-30T07:06:57.964Z,184
2016-05-30T07:07:54.888Z,156
2016-05-30T07:08:41.466Z,136
2016-05-30T07:09:41.298Z,132
2016-05-30T07:10:42.518Z,128
2016-05-30T07:11:41.632Z,140
2016-05-30T07:12:41.743Z,152
2016-05-30T07:13:41.511Z,152
2016-05-30T07:14:41.327Z,168
2016-05-30T07:15:44.673Z,144
2016-05-30T07:16:54.801Z,152
2016-05-30T07:17:41.257Z,160
2016-05-30T07:18:41.416Z,160
2016-05-30T07:19:41.309Z,168
2016-05-30T07:20:56.501Z,156
2016-05-30T07:22:42.223Z,172
2016-05-30T07:23:41.273Z,168
2016-05-30T07:24:41.244Z,164
2016-05-30T07:25:44.403Z,176
2016-05-30T07:26:41.219Z,204
2016-05-30T07:27:41.440Z,240
2016-05-30T07:28:54.411Z,276
2016-05-30T07:30:54.480Z,224
2016-05-30T07:31:41.169Z,188
2016-05-30T07:32:41.422Z,184
2016-05-30T07:33:43.190Z,164
2016-05-30T07:35:43.524Z,172
2016-05-30T07:38:41.282Z,132
2016-05-30T07:39:54.549Z,124
2016-05-30T07:40:54.194Z,128
2016-05-30T07:42:54.746Z,152
2016-05-30T07:43:54.373Z,140
2016-05-30T07:44:55.299Z,144
2016-05-30T07:45:42.691Z,152
2016-05-30T07:46:41.178Z,156
2016-05-30T07:47:41.056Z,188
2016-05-30T07:48:41.418Z,188
2016-05-30T07:49:41.624Z,176
2016-05-30T07:51:41.754Z,160
2016-05-30T07:53:43.337Z,148
2016-05-30T07:54:54.497Z,140
2016-05-30T07:55:45.000Z,164
2016-05-30T07:57:40.333Z,168
2016-05-30T07:58:40.414Z,164
2016-05-30T07:59:40.338Z,144
2016-05-30T08:00:41.372Z,160
2016-05-30T08:03:53.536Z,180
2016-05-30T08:04:53.696Z,172
2016-05-30T08:05:41.292Z,188
2016-05-30T08:06:41.232Z,164
2016-05-30T08:07:39.704Z,168
2016-05-30T08:08:39.941Z,160
2016-05-30T08:09:39.647Z,160
2016-05-30T08:10:40.587Z,136
2016-05-30T08:12:41.779Z,120
2016-05-30T08:13:39.626Z,120
2016-05-30T08:14:53.379Z,124
2016-05-30T08:15:39.741Z,128
2016-05-30T08:16:41.385Z,152
2016-05-30T08:17:41.043Z,160
2016-05-30T08:24:07.920Z,180
2016-05-30T08:24:26.155Z,180
2016-05-30T08:25:26.314Z,224
2016-05-30T08:26:25.739Z,236
2016-05-30T08:27:26.664Z,220
2016-05-30T08:28:26.026Z,216
2016-05-30T08:29:26.247Z,224
2016-05-30T08:31:06.861Z,248
2016-05-30T08:31:25.861Z,244
2016-05-30T08:32:25.661Z,260
2016-05-30T08:33:39.383Z,364
2016-05-30T08:35:39.341Z,268
2016-05-30T08:36:26.985Z,268
2016-05-30T08:37:25.769Z,236
2016-05-30T08:38:26.193Z,288
2016-05-30T08:39:27.274Z,268
2016-05-30T08:40:40.543Z,212
2016-05-30T08:41:25.592Z,212
2016-05-30T08:42:29.705Z,176
2016-05-30T08:43:27.628Z,180
2016-05-30T08:45:26.149Z,88
2016-05-30T08:46:25.293Z,52
2016-05-30T08:48:25.970Z,48
2016-05-30T08:49:26.817Z,48
2016-05-30T08:50:25.523Z,44
2016-05-30T08:51:25.385Z,72
2016-05-30T08:52:25.153Z,96
2016-05-30T08:53:26.452Z,124
2016-05-30T08:54:25.611Z,168
2016-05-30T08:55:26.786Z,244
2016-05-30T08:56:25.320Z,304
2016-05-30T08:57:38.885Z,260
2016-05-30T08:58:39.013Z,200
2016-05-30T08:59:39.140Z,152
2016-05-30T09:00:39.283Z,144
2016-05-30T09:01:25.755Z,204
2016-05-30T09:02:25.773Z,204
2016-05-30T09:03:26.698Z,244
2016-05-30T09:04:38.592Z,248
2016-05-30T09:05:26.078Z,296
2016-05-30T09:06:25.909Z,300
2016-05-30T09:07:40.005Z,384
2016-05-30T09:08:25.056Z,392
2016-05-30T09:09:24.964Z,388
2016-05-30T09:10:24.951Z,416
2016-05-30T09:11:26.813Z,492
2016-05-30T09:12:26.894Z,528
2016-05-30T09:13:25.350Z,428
2016-05-30T09:14:25.805Z,460
2016-05-30T09:15:24.902Z,636
2016-05-30T09:16:24.779Z,468
2016-05-30T09:17:25.298Z,484
2016-05-30T09:19:24.757Z,408
2016-05-30T09:21:24.840Z,468
2016-05-30T09:22:25.234Z,384
2016-05-30T09:23:25.220Z,368
2016-05-30T09:25:24.648Z,436
2016-05-30T09:26:24.901Z,392
2016-05-30T09:27:38.153Z,288
2016-05-30T09:28:24.389Z,312
2016-05-30T09:29:24.628Z,328
2016-05-30T09:30:24.786Z,308
2016-05-30T09:31:24.586Z,328
2016-05-30T09:32:38.261Z,424
2016-05-30T09:33:38.264Z,364
2016-05-30T09:34:38.156Z,316
2016-05-30T09:35:28.722Z,244
2016-05-30T09:36:24.927Z,216
2016-05-30T09:37:25.368Z,212
2016-05-30T09:38:24.308Z,224
2016-05-30T09:39:24.544Z,280
2016-05-30T09:40:24.438Z,316
2016-05-30T09:41:24.832Z,296
2016-05-30T09:42:25.287Z,304
2016-05-30T09:43:37.947Z,336
2016-05-30T09:44:24.277Z,348
2016-05-30T09:45:25.826Z,400
2016-05-30T09:46:25.783Z,372
2016-05-30T09:47:37.801Z,356
2016-05-30T09:48:24.475Z,312
2016-05-30T09:50:24.856Z,292
2016-05-30T09:51:39.187Z,336
2016-05-30T09:52:24.267Z,316
2016-05-30T09:53:51.332Z,272
2016-05-30T09:54:37.787Z,344
2016-05-30T09:55:51.384Z,456
2016-05-30T09:56:24.778Z,436
2016-05-30T09:58:24.314Z,432
2016-05-30T09:59:25.145Z,368
2016-05-30T10:00:23.945Z,312
2016-05-30T10:01:23.761Z,352
2016-05-30T10:03:23.922Z,252
2016-05-30T10:04:24.534Z,244
2016-05-30T10:06:25.055Z,352
2016-05-30T10:07:24.167Z,404
2016-05-30T10:08:37.483Z,488
2016-05-30T10:09:23.751Z,528
2016-05-30T10:10:24.972Z,500
2016-05-30T10:11:24.022Z,420
2016-05-30T10:12:23.697Z,300
2016-05-30T10:13:23.808Z,232
2016-05-30T10:14:23.671Z,244
2016-05-30T10:15:23.611Z,196
2016-05-30T10:16:23.676Z,248
2016-05-30T10:17:24.007Z,296
2016-05-30T10:18:37.071Z,308
2016-05-30T10:20:37.577Z,400
2016-05-30T10:21:24.735Z,356
2016-05-30T10:22:25.629Z,284
2016-05-30T10:23:37.366Z,276
2016-05-30T10:24:23.963Z,252
2016-05-30T10:25:23.496Z,236
2016-05-30T10:27:24.018Z,428
2016-05-30T10:29:24.273Z,364
2016-05-30T10:30:36.870Z,500
2016-05-30T10:32:36.984Z,232
2016-05-30T10:33:37.065Z,208
2016-05-30T10:34:23.677Z,216
2016-05-30T10:35:24.070Z,252
2016-05-30T10:36:23.323Z,256
2016-05-30T10:37:24.764Z,256
2016-05-30T10:38:23.391Z,216
2016-05-30T10:39:23.628Z,232
2016-05-30T10:40:23.365Z,320
2016-05-30T10:41:36.790Z,388
2016-05-30T10:42:37.433Z,316
2016-05-30T10:43:36.795Z,300
2016-05-30T10:44:23.658Z,252
2016-05-30T10:45:23.675Z,244
2016-05-30T10:46:24.427Z,264
2016-05-30T10:47:25.931Z,300
2016-05-30T10:48:37.105Z,408
2016-05-30T10:49:23.107Z,504
2016-05-30T10:50:23.188Z,540
2016-05-30T10:51:22.927Z,532
2016-05-30T10:54:37.154Z,392
2016-05-30T10:55:22.984Z,404
2016-05-30T10:56:23.377Z,360
2016-05-30T10:57:22.677Z,304
2016-05-30T10:58:22.851Z,244
2016-05-30T10:59:36.510Z,168
2016-05-30T11:00:23.434Z,148
2016-05-30T11:01:39.390Z,112
2016-05-30T11:02:25.737Z,104
2016-05-30T11:03:36.395Z,108
2016-05-30T11:04:36.820Z,116
2016-05-30T11:05:39.917Z,124
2016-05-30T11:06:22.997Z,132
2016-05-30T11:07:22.656Z,148
2016-05-30T11:08:22.487Z,164
2016-05-30T11:09:36.224Z,188
2016-05-30T11:10:36.446Z,200
2016-05-30T11:11:23.839Z,216
2016-05-30T11:12:23.186Z,216
2016-05-30T11:13:36.047Z,204
2016-05-30T11:14:22.566Z,248
2016-05-30T11:15:22.350Z,296
2016-05-30T11:16:22.649Z,264
2016-05-30T11:17:35.933Z,268
2016-05-30T11:18:22.421Z,260
2016-05-30T11:19:22.486Z,228
2016-05-30T11:20:22.316Z,180
2016-05-30T11:21:22.694Z,200
2016-05-30T11:22:23.447Z,196
2016-05-30T11:23:23.372Z,180
2016-05-30T11:24:22.155Z,156
2016-05-30T11:25:35.955Z,140
2016-05-30T11:27:23.585Z,104
2016-05-30T11:28:22.509Z,104
2016-05-30T11:30:22.109Z,112
2016-05-30T11:31:22.143Z,124
2016-05-30T11:32:22.192Z,148
2016-05-30T11:33:22.695Z,152
2016-05-30T11:34:22.292Z,180
2016-05-30T11:37:22.284Z,288
2016-05-30T11:40:23.308Z,260
2016-05-30T11:42:21.938Z,204
2016-05-30T11:43:21.956Z,200
2016-05-30T11:44:35.616Z,284
2016-05-30T11:45:21.914Z,372
2016-05-30T11:46:22.266Z,520
2016-05-30T11:48:35.375Z,452
2016-05-30T11:49:35.943Z,388
2016-05-30T11:50:35.520Z,312
2016-05-30T11:51:21.983Z,312
2016-05-30T11:52:21.899Z,292
2016-05-30T11:53:22.206Z,236
2016-05-30T11:54:24.638Z,260
2016-05-30T11:55:21.675Z,184
2016-05-30T11:56:21.805Z,160
2016-05-30T11:57:22.186Z,96
2016-05-30T11:58:22.441Z,76
2016-05-30T11:59:22.322Z,88
2016-05-30T12:00:21.998Z,148
2016-05-30T12:01:35.252Z,200
2016-05-30T12:02:21.694Z,224
2016-05-30T12:03:27.932Z,212
2016-05-30T12:04:23.232Z,192
2016-05-30T12:05:21.892Z,184
2016-05-30T12:06:22.755Z,176
2016-05-30T12:07:22.242Z,176
2016-05-30T12:08:22.182Z,152
2016-05-30T12:09:21.529Z,128
2016-05-30T12:10:21.532Z,116
2016-05-30T12:11:22.457Z,136
2016-05-30T12:12:21.803Z,156
2016-05-30T12:13:35.384Z,176
2016-05-30T12:14:34.980Z,168
2016-05-30T12:16:24.611Z,148
2016-05-30T12:17:23.286Z,148
2016-05-30T12:18:21.585Z,152
2016-05-30T12:19:21.384Z,172
2016-05-30T12:20:21.544Z,176
2016-05-30T12:21:21.578Z,172
2016-05-30T12:22:21.955Z,164
2016-05-30T12:23:35.989Z,160
2016-05-30T12:24:21.414Z,172
2016-05-30T12:25:34.932Z,192
2016-05-30T12:26:34.950Z,204
2016-05-30T12:27:35.109Z,220
2016-05-30T12:28:22.268Z,224
2016-05-30T12:29:22.036Z,216
2016-05-30T12:30:21.430Z,212
2016-05-30T12:31:21.183Z,204
2016-05-30T12:32:34.841Z,208
2016-05-30T12:33:34.547Z,236
2016-05-30T12:34:21.065Z,276
2016-05-30T12:35:21.302Z,308
2016-05-30T12:36:35.462Z,268
2016-05-30T12:37:34.871Z,248
2016-05-30T12:38:34.654Z,260
2016-05-30T12:39:48.188Z,292
2016-05-30T12:40:21.363Z,288
2016-05-30T12:41:21.162Z,248
2016-05-30T12:42:21.728Z,224
2016-05-30T12:43:34.481Z,248
2016-05-30T12:44:34.530Z,268
2016-05-30T12:45:21.501Z,280
2016-05-30T12:46:34.739Z,316
2016-05-30T12:48:34.463Z,388
2016-05-30T12:49:34.481Z,440
2016-05-30T12:50:48.125Z,384
2016-05-30T12:51:21.486Z,340
2016-05-30T12:52:35.051Z,264
2016-05-30T12:53:20.726Z,240
2016-05-30T12:54:20.494Z,228
2016-05-30T12:55:20.450Z,212
2016-05-30T12:56:23.375Z,184
2016-05-30T12:57:21.347Z,156
2016-05-30T12:58:20.646Z,136
2016-05-30T12:59:34.242Z,116
2016-05-30T13:00:34.541Z,120
2016-05-30T13:01:34.263Z,172
2016-05-30T13:02:20.719Z,220
2016-05-30T13:03:20.909Z,280
2016-05-30T13:04:20.740Z,304
2016-05-30T13:05:20.321Z,296
2016-05-30T13:06:21.371Z,280
2016-05-30T13:07:20.436Z,260
2016-05-30T13:08:20.626Z,272
2016-05-30T13:09:20.254Z,308
2016-05-30T13:10:23.444Z,336
2016-05-30T13:11:20.384Z,312
2016-05-30T13:12:34.324Z,264
2016-05-30T13:13:20.998Z,248
2016-05-30T13:14:22.376Z,184
2016-05-30T13:15:20.223Z,132
2016-05-30T13:16:23.475Z,100
2016-05-30T13:17:20.556Z,80
2016-05-30T13:18:33.903Z,84
2016-05-30T13:19:22.733Z,96
2016-05-30T13:21:34.317Z,200
2016-05-30T13:22:33.992Z,156
2016-05-30T13:23:33.775Z,144
2016-05-30T13:24:33.841Z,144
2016-05-30T13:25:20.797Z,160
2016-05-30T13:27:23.192Z,232
2016-05-30T13:28:19.867Z,264
2016-05-30T13:29:20.854Z,300
2016-05-30T13:30:19.903Z,320
2016-05-30T13:31:20.625Z,328
2016-05-30T13:32:19.971Z,320
2016-05-30T13:33:20.225Z,284
2016-05-30T13:34:23.071Z,260
2016-05-30T13:35:20.573Z,252
2016-05-30T13:36:20.108Z,228
2016-05-30T13:37:37.126Z,216
2016-05-30T13:38:23.597Z,220
2016-05-30T13:39:23.069Z,228
2016-05-30T13:40:20.884Z,240
2016-05-30T13:41:20.355Z,252
2016-05-30T13:42:20.452Z,268
2016-05-30T13:43:22.767Z,276
2016-05-30T13:44:19.801Z,288
2016-05-30T13:46:20.259Z,284
2016-05-30T13:48:20.358Z,288
2016-05-30T13:49:24.487Z,284
2016-05-30T13:51:19.601Z,296
2016-05-30T13:52:23.166Z,328
2016-05-30T13:53:24.387Z,392
2016-05-30T13:54:22.468Z,456
2016-05-30T13:55:19.518Z,504
2016-05-30T13:56:19.536Z,564
2016-05-30T13:57:36.133Z,628
2016-05-30T13:58:47.011Z,708
2016-05-30T14:00:19.766Z,816
2016-05-30T14:01:19.174Z,812
2016-05-30T14:02:19.224Z,952
2016-05-30T14:03:22.774Z,1120
2016-05-30T14:04:19.230Z,1324
2016-05-30T14:05:19.779Z,1220
2016-05-30T14:06:32.954Z,2540
2016-05-30T14:07:33.285Z,1096
2016-05-30T14:08:19.099Z,1940
2016-05-30T14:09:21.477Z,4048
2016-05-30T14:10:33.808Z,3204
2016-05-30T14:11:19.124Z,3024
2016-05-30T14:12:19.923Z,1704
2016-05-30T14:13:19.300Z,1680
2016-05-30T14:14:22.772Z,1480
2016-05-30T14:15:36.166Z,1600
2016-05-30T14:16:32.731Z,2740
2016-05-30T14:18:32.736Z,16832
2016-05-30T14:19:33.442Z,19744
2016-05-30T14:20:18.882Z,15872
2016-05-30T14:21:24.259Z,9712
2016-05-30T14:22:19.106Z,6756
2016-05-30T14:23:19.187Z,4960
2016-05-30T14:24:18.892Z,4712
2016-05-30T14:25:19.192Z,5292
2016-05-30T14:26:18.883Z,4520
2016-05-30T14:27:32.447Z,4100
2016-05-30T14:28:46.278Z,4288
2016-05-30T14:29:21.078Z,5228
2016-05-30T14:31:18.818Z,14464
2016-05-30T14:32:18.742Z,9888
2016-05-30T14:33:20.745Z,9028
2016-05-30T14:34:32.232Z,13696
2016-05-30T14:35:18.719Z,11192
2016-05-30T14:36:18.738Z,4932
2016-05-30T14:37:20.506Z,4588
2016-05-30T14:38:32.353Z,4276
2016-05-30T14:39:22.730Z,4648
2016-05-30T14:40:32.373Z,4604
2016-05-30T14:41:18.376Z,4488
2016-05-30T14:42:18.613Z,7916
2016-05-30T14:43:18.616Z,15680
2016-05-30T14:44:32.852Z,17632
2016-05-30T14:45:20.012Z,13568
2016-05-30T14:46:32.311Z,12780
2016-05-30T14:47:18.377Z,13568
2016-05-30T14:48:19.176Z,21888
2016-05-30T14:49:32.256Z,19520
2016-05-30T14:50:18.509Z,6448
2016-05-30T14:51:19.106Z,17376
2016-05-30T14:52:20.156Z,15008
2016-05-30T14:53:20.502Z,24544
2016-05-30T14:54:18.473Z,27424
2016-05-30T14:55:18.804Z,23584
2016-05-30T14:56:18.400Z,21888
2016-05-30T14:57:22.825Z,16192
2016-05-30T14:58:18.203Z,10428
2016-05-30T14:59:32.690Z,5592
2016-05-30T15:00:35.864Z,3120
2016-05-30T15:01:18.961Z,2900
2016-05-30T15:02:32.339Z,2516
2016-05-30T15:03:32.528Z,2400
2016-05-30T15:04:45.610Z,2376
2016-05-30T15:05:18.018Z,2408
2016-05-30T15:06:22.599Z,3016
2016-05-30T15:07:23.758Z,2900
2016-05-30T15:08:18.949Z,2092
2016-05-30T15:09:22.311Z,2568
2016-05-30T15:10:19.797Z,2336
2016-05-30T15:11:21.379Z,3548
2016-05-30T15:12:31.615Z,2420
2016-05-30T15:13:31.774Z,2364
2016-05-30T15:14:19.543Z,2104
2016-05-30T15:15:31.561Z,2444
2016-05-30T15:16:31.735Z,2360
2016-05-30T15:17:31.738Z,2304
2016-05-30T15:18:31.803Z,2736
2016-05-30T15:19:17.759Z,3476
2016-05-30T15:20:18.435Z,2416
2016-05-30T15:21:17.937Z,2380
2016-05-30T15:22:22.970Z,1756
2016-05-30T15:23:18.176Z,1832
2016-05-30T15:24:18.006Z,1876
2016-05-30T15:26:18.247Z,1680
2016-05-30T15:28:17.815Z,1676
2016-05-30T15:29:31.442Z,1640
2016-05-30T15:30:18.883Z,1640
2016-05-30T15:31:18.353Z,1724
2016-05-30T15:32:17.936Z,1840
2016-05-30T15:33:18.469Z,2052
2016-05-30T15:34:17.659Z,2012
2016-05-30T15:36:17.617Z,1980
2016-05-30T15:37:20.402Z,2204
2016-05-30T15:38:19.592Z,2532
2016-05-30T15:39:31.188Z,1432
2016-05-30T15:41:31.724Z,1360
2016-05-30T15:42:18.790Z,1868
2016-05-30T15:43:17.743Z,1800
2016-05-30T15:44:17.386Z,1872
2016-05-30T15:45:17.421Z,2044
2016-05-30T15:46:17.611Z,2044
2016-05-30T15:47:17.394Z,1420
2016-05-30T15:48:18.303Z,1092
2016-05-30T15:49:31.402Z,1404
2016-05-30T15:50:18.121Z,1608
2016-05-30T15:51:31.126Z,1712
2016-05-30T15:52:31.098Z,2024
2016-05-30T15:53:31.429Z,2316
2016-05-30T15:54:18.163Z,2264
2016-05-30T15:55:18.825Z,1816
2016-05-30T15:56:17.497Z,1476
2016-05-30T15:57:17.109Z,1016
2016-05-30T15:58:17.253Z,568
2016-05-30T15:59:17.692Z,384
2016-05-30T16:00:17.837Z,404
2016-05-30T16:02:31.078Z,428
2016-05-30T16:03:17.828Z,456
2016-05-30T16:05:17.036Z,528
2016-05-30T16:06:16.993Z,436
2016-05-30T16:07:18.714Z,280
2016-05-30T16:08:36.391Z,164
2016-05-30T16:09:23.144Z,148
2016-05-30T16:10:19.113Z,140
2016-05-30T16:11:22.586Z,148
2016-05-30T16:12:17.868Z,152
2016-05-30T16:14:30.549Z,188